Time;durP1;ratioP1;P1;durP2;ratioP2;P2;SDS_P1;SDS_P2;PMS_P1;PMS_P2;Temp;Humidity;BMP_temperature;BMP_pressure;BME280_temperature;BME280_humidity;BME280_pressure;Samples;Min_cycle;Max_cycle;Signal;HPM_P1;HPM_P2
2023/06/23 00:00:53;;;;;;;5.53;3.72;;;17.10;99.90;;;;;;5001796;28;20040;-88
2023/06/23 00:03:18;;;;;;;6.97;4.70;;;17.10;99.90;;;;;;5001468;28;20381;-85
2023/06/23 00:05:46;;;;;;;5.90;4.10;;;17.00;99.90;;;;;;5024711;28;20159;-87
2023/06/23 00:08:12;;;;;;;6.25;3.70;;;17.00;99.90;;;;;;5003542;28;20049;-88
2023/06/23 00:10:37;;;;;;;4.72;3.83;;;17.00;99.90;;;;;;5001807;28;20051;-87
2023/06/23 00:13:05;;;;;;;7.25;4.28;;;17.00;99.90;;;;;;5025920;28;20034;-88
2023/06/23 00:15:32;;;;;;;5.18;3.75;;;16.90;99.90;;;;;;5006981;28;20029;-88
2023/06/23 00:18:00;;;;;;;4.45;3.70;;;16.90;99.90;;;;;;5018922;28;20017;-87
2023/06/23 00:20:26;;;;;;;5.85;3.95;;;16.90;99.90;;;;;;5024677;28;20033;-88
2023/06/23 00:22:52;;;;;;;5.35;3.80;;;16.80;99.90;;;;;;5006063;28;20465;-87
2023/06/23 00:25:18;;;;;;;5.57;3.88;;;16.80;99.90;;;;;;5022013;28;20183;-88
2023/06/23 00:27:47;;;;;;;5.60;3.92;;;16.80;99.90;;;;;;5006175;28;20112;-86
2023/06/23 00:30:14;;;;;;;6.07;4.10;;;16.80;99.90;;;;;;5002022;28;20128;-86
2023/06/23 00:32:40;;;;;;;5.78;4.03;;;16.80;99.90;;;;;;5023690;28;20034;-86
2023/06/23 00:35:08;;;;;;;5.28;3.90;;;16.70;99.90;;;;;;5020479;28;20053;-87
2023/06/23 00:37:37;;;;;;;4.50;3.35;;;16.70;99.90;;;;;;5000360;28;20091;-87
2023/06/23 00:40:04;;;;;;;4.80;3.47;;;16.70;99.90;;;;;;5000767;28;20025;-87
2023/06/23 00:42:31;;;;;;;5.82;3.30;;;16.70;99.90;;;;;;5022286;28;20029;-86
2023/06/23 00:44:58;;;;;;;4.35;3.40;;;16.60;99.90;;;;;;5022849;28;20025;-87
2023/06/23 00:47:24;;;;;;;5.30;3.45;;;16.70;99.90;;;;;;5000844;28;20021;-86
2023/06/23 00:49:50;;;;;;;6.45;4.32;;;16.70;99.90;;;;;;4999554;28;20029;-87
2023/06/23 00:52:16;;;;;;;5.60;3.85;;;16.60;99.90;;;;;;5023965;28;20035;-86
2023/06/23 00:54:42;;;;;;;4.72;3.53;;;16.60;99.90;;;;;;5005305;28;20029;-86
2023/06/23 00:57:10;;;;;;;4.93;3.63;;;16.60;99.90;;;;;;5005660;28;20040;-86
2023/06/23 00:59:36;;;;;;;4.90;3.60;;;16.60;99.90;;;;;;5001598;28;20044;-86
2023/06/23 01:02:02;;;;;;;4.88;2.92;;;16.60;99.90;;;;;;4999315;28;20021;-85
2023/06/23 01:04:32;;;;;;;4.10;2.92;;;16.60;99.90;;;;;;5022711;28;20037;-86
2023/06/23 01:07:15;;;;;;;3.90;2.78;;;16.60;99.90;;;;;;5019812;28;20033;-86
2023/06/23 01:10:10;;;;;;;4.93;3.08;;;16.70;99.90;;;;;;5021778;28;20143;-86
2023/06/23 01:12:49;;;;;;;4.20;2.72;;;16.60;99.90;;;;;;5022315;28;20026;-87
2023/06/23 01:15:24;;;;;;;3.97;2.92;;;16.60;99.90;;;;;;5018756;28;20095;-86
2023/06/23 01:18:20;;;;;;;5.03;3.42;;;16.60;99.90;;;;;;5004439;28;20029;-88
2023/06/23 01:20:47;;;;;;;4.68;3.15;;;16.60;99.90;;;;;;5020506;28;20087;-87
2023/06/23 01:23:31;;;;;;;3.70;2.45;;;16.50;99.90;;;;;;5036894;28;20033;-86
2023/06/23 01:26:38;;;;;;;4.47;3.10;;;16.50;99.90;;;;;;5004162;28;20631;-85
2023/06/23 01:29:09;;;;;;;5.82;3.13;;;16.60;99.90;;;;;;4992439;28;20385;-85
2023/06/23 01:31:45;;;;;;;4.03;2.85;;;16.50;99.90;;;;;;5017274;28;20083;-86
2023/06/23 01:34:20;;;;;;;3.65;2.65;;;16.50;99.90;;;;;;5001629;28;20065;-86
2023/06/23 01:36:50;;;;;;;4.13;3.10;;;16.50;99.90;;;;;;5022976;28;20033;-86
2023/06/23 01:39:20;;;;;;;4.63;3.22;;;16.50;99.90;;;;;;5022506;28;20041;-86
2023/06/23 01:41:52;;;;;;;4.70;3.50;;;16.50;99.90;;;;;;5021312;28;20035;-85
2023/06/23 01:44:22;;;;;;;3.83;3.00;;;16.50;99.90;;;;;;5022121;28;20017;-86
2023/06/23 01:46:54;;;;;;;6.82;3.42;;;16.40;99.90;;;;;;5021196;28;20140;-85
2023/06/23 01:49:31;;;;;;;;;;;16.40;99.90;;;;;;5018353;28;20017;-86
2023/06/23 01:52:00;;;;;;;3.70;2.38;;;16.30;99.90;;;;;;5020281;28;19913;-87
2023/06/23 01:54:27;;;;;;;4.40;2.60;;;16.30;99.90;;;;;;5020748;28;20045;-87
2023/06/23 01:56:54;;;;;;;3.95;2.97;;;16.30;99.90;;;;;;5018867;28;20033;-86
2023/06/23 01:59:22;;;;;;;4.30;3.08;;;16.30;99.90;;;;;;5036424;28;20037;-85
2023/06/23 02:01:48;;;;;;;3.55;3.08;;;16.30;99.90;;;;;;4998709;28;20029;-85
2023/06/23 02:04:16;;;;;;;4.32;2.95;;;16.30;99.90;;;;;;5022055;28;20036;-85
2023/06/23 02:06:44;;;;;;;3.92;2.70;;;16.30;99.90;;;;;;5020040;28;20064;-86
2023/06/23 02:09:16;;;;;;;4.50;2.92;;;16.30;99.90;;;;;;4997721;28;20030;-86
2023/06/23 02:11:43;;;;;;;4.00;3.10;;;16.30;99.90;;;;;;5021380;28;20030;-86
2023/06/23 02:14:11;;;;;;;4.38;3.10;;;16.30;99.90;;;;;;5035830;28;20519;-87
2023/06/23 02:16:39;;;;;;;4.43;3.25;;;16.30;99.90;;;;;;4998408;28;20049;-86
2023/06/23 02:19:06;;;;;;;5.22;3.10;;;16.20;99.90;;;;;;5035604;28;20013;-86
2023/06/23 02:21:34;;;;;;;4.43;3.03;;;16.20;99.90;;;;;;4999018;28;20116;-86
2023/06/23 02:24:04;;;;;;;5.63;3.15;;;16.20;99.90;;;;;;5033326;28;20040;-85
2023/06/23 02:26:31;;;;;;;4.20;3.10;;;16.20;99.90;;;;;;5003790;28;20030;-86
2023/06/23 02:28:57;;;;;;;5.05;3.45;;;16.10;99.90;;;;;;5020410;28;20060;-86
2023/06/23 02:31:24;;;;;;;4.75;3.33;;;16.10;99.90;;;;;;4997226;28;20021;-85
2023/06/23 02:33:51;;;;;;;4.60;3.47;;;16.10;99.90;;;;;;5021025;28;20115;-84
2023/06/23 02:36:22;;;;;;;4.85;3.58;;;16.00;99.90;;;;;;4997952;28;20074;-85
2023/06/23 02:38:51;;;;;;;4.20;3.33;;;16.00;99.90;;;;;;4997687;28;20112;-85
2023/06/23 02:41:19;;;;;;;4.10;3.17;;;16.00;99.90;;;;;;5021461;28;20028;-86
2023/06/23 02:43:54;;;;;;;4.38;3.03;;;15.90;99.90;;;;;;5036065;28;20029;-83
2023/06/23 02:46:22;;;;;;;5.03;3.42;;;16.00;99.90;;;;;;5021312;28;20059;-85
2023/06/23 02:48:51;;;;;;;4.25;3.13;;;16.00;99.90;;;;;;4998121;28;20033;-84
2023/06/23 02:51:21;;;;;;;4.45;3.50;;;16.00;99.90;;;;;;5033425;28;20379;-84
2023/06/23 02:54:05;;;;;;;5.05;3.78;;;16.00;99.90;;;;;;5020656;28;20041;-83
2023/06/23 02:56:41;;;;;;;5.35;3.70;;;16.00;99.90;;;;;;5013063;28;20117;-86
2023/06/23 02:59:12;;;;;;;7.18;4.65;;;15.90;99.90;;;;;;4997380;28;20068;-84
2023/06/23 03:01:40;;;;;;;6.32;4.75;;;15.90;99.90;;;;;;5003723;28;20588;-84
2023/06/23 03:04:06;;;;;;;5.90;4.40;;;16.00;99.90;;;;;;5020173;28;20041;-84
2023/06/23 03:06:36;;;;;;;6.68;4.88;;;16.00;99.90;;;;;;5025212;28;20044;-84
2023/06/23 03:09:09;;;;;;;6.55;5.00;;;15.90;99.90;;;;;;5024283;28;20029;-83
2023/06/23 03:11:34;;;;;;;;;;;15.90;99.90;;;;;;5024045;28;20021;-84
2023/06/23 03:14:00;;;;;;;8.27;5.45;;;15.90;99.90;;;;;;5003953;28;22345;-85
2023/06/23 03:16:52;;;;;;;7.60;5.70;;;15.90;99.90;;;;;;5023932;28;20457;-85
2023/06/23 03:19:44;;;;;;;7.82;6.03;;;15.90;99.90;;;;;;5007324;28;20053;-86
2023/06/23 03:22:12;;;;;;;8.10;6.18;;;15.90;99.90;;;;;;5014618;28;20087;-85
2023/06/23 03:24:41;;;;;;;9.52;6.63;;;15.90;99.90;;;;;;5039786;28;20033;-86
2023/06/23 03:27:08;;;;;;;10.18;7.70;;;15.90;99.90;;;;;;5021181;28;20568;-85
2023/06/23 03:29:43;;;;;;;9.93;7.43;;;15.90;99.90;;;;;;5024802;28;20389;-85
2023/06/23 03:32:14;;;;;;;10.18;7.72;;;16.00;99.90;;;;;;5007175;28;20025;-86
2023/06/23 03:34:47;;;;;;;8.85;7.03;;;15.90;99.90;;;;;;5001281;28;20025;-85
2023/06/23 03:37:16;;;;;;;8.70;6.20;;;15.90;99.90;;;;;;5003669;28;20032;-85
2023/06/23 03:39:46;;;;;;;12.13;8.40;;;15.90;99.90;;;;;;5024260;28;20116;-85
2023/06/23 03:42:12;;;;;;;12.00;8.95;;;15.90;99.90;;;;;;5001305;28;20041;-85
2023/06/23 03:44:42;;;;;;;12.82;9.82;;;15.90;99.90;;;;;;5006952;28;20029;-83
2023/06/23 03:47:15;;;;;;;11.00;8.23;;;15.90;99.90;;;;;;5002667;28;20725;-85
2023/06/23 03:49:55;;;;;;;12.50;9.15;;;15.90;99.90;;;;;;5023875;28;20389;-85
2023/06/23 03:52:23;;;;;;;13.02;9.63;;;15.90;99.90;;;;;;5020190;28;20022;-85
2023/06/23 03:54:52;;;;;;;13.18;10.18;;;15.80;99.90;;;;;;5022987;28;20045;-84
2023/06/23 03:57:22;;;;;;;12.52;9.43;;;15.80;99.90;;;;;;5024043;28;20022;-84
2023/06/23 03:59:52;;;;;;;10.02;8.07;;;15.80;99.90;;;;;;5024115;28;20036;-84
2023/06/23 04:02:20;;;;;;;10.85;7.85;;;15.80;99.90;;;;;;5023868;28;20030;-85
2023/06/23 04:04:48;;;;;;;13.73;9.13;;;15.80;99.90;;;;;;5023541;28;20117;-84
2023/06/23 04:07:15;;;;;;;11.55;9.02;;;15.90;99.90;;;;;;5023390;28;20809;-85
2023/06/23 04:09:45;;;;;;;12.70;8.88;;;15.80;99.90;;;;;;5001901;28;20029;-85
2023/06/23 04:12:13;;;;;;;11.27;8.13;;;15.80;99.90;;;;;;4998620;28;20033;-84
2023/06/23 04:14:44;;;;;;;10.85;8.55;;;15.80;99.90;;;;;;5022450;28;20030;-84
2023/06/23 04:17:12;;;;;;;12.35;8.98;;;15.80;99.90;;;;;;5023358;28;20091;-84
2023/06/23 04:19:41;;;;;;;10.68;8.60;;;15.80;99.90;;;;;;5023736;28;20029;-85
2023/06/23 04:22:08;;;;;;;9.20;7.80;;;15.80;99.90;;;;;;5023425;28;20052;-84
2023/06/23 04:24:37;;;;;;;10.80;8.57;;;15.80;99.90;;;;;;5000478;28;20033;-84
2023/06/23 04:27:06;;;;;;;13.07;10.02;;;15.80;99.90;;;;;;5022540;28;20087;-84
2023/06/23 04:29:36;;;;;;;13.43;10.45;;;15.90;99.90;;;;;;5023513;28;20091;-86
2023/06/23 04:32:01;;;;;;;14.70;10.57;;;15.90;99.90;;;;;;5022683;28;20057;-86
2023/06/23 04:34:29;;;;;;;13.18;10.60;;;15.90;99.90;;;;;;5005233;28;20669;-86
2023/06/23 04:36:56;;;;;;;13.48;10.50;;;15.90;99.90;;;;;;5023031;28;20049;-86
2023/06/23 04:39:28;;;;;;;15.07;10.73;;;15.90;99.90;;;;;;4999772;28;20025;-85
2023/06/23 04:42:05;;;;;;;12.82;9.90;;;15.90;99.90;;;;;;5037530;28;20603;-86
2023/06/23 04:44:36;;;;;;;15.38;11.52;;;15.90;99.90;;;;;;5017816;28;20029;-85
2023/06/23 04:47:03;;;;;;;15.55;12.50;;;15.90;99.90;;;;;;5000724;28;20037;-86
2023/06/23 04:49:32;;;;;;;15.50;12.32;;;16.00;99.90;;;;;;5000665;28;20033;-87
2023/06/23 04:52:03;;;;;;;13.27;10.68;;;16.10;99.90;;;;;;5022567;28;20033;-86
2023/06/23 04:54:40;;;;;;;14.43;11.18;;;16.20;99.90;;;;;;5002277;28;20021;-86
2023/06/23 04:57:09;;;;;;;13.38;10.38;;;16.30;99.90;;;;;;5022988;28;20394;-87
2023/06/23 04:59:41;;;;;;;14.85;12.07;;;16.40;99.90;;;;;;5000032;28;20037;-87
2023/06/23 05:02:12;;;;;;;17.90;13.57;;;16.50;99.90;;;;;;5037365;28;20103;-86
2023/06/23 05:04:39;;;;;;;17.55;12.77;;;16.60;99.90;;;;;;5038206;28;20048;-86
2023/06/23 05:07:07;;;;;;;16.38;11.43;;;16.60;99.90;;;;;;4998558;28;20080;-85
2023/06/23 05:09:34;;;;;;;13.48;10.07;;;16.60;99.90;;;;;;5005448;28;20076;-85
2023/06/23 05:12:02;;;;;;;14.38;11.00;;;16.70;99.90;;;;;;5022480;28;20025;-84
2023/06/23 05:14:30;;;;;;;17.20;12.82;;;16.80;99.90;;;;;;5004770;28;20143;-87
2023/06/23 05:17:00;;;;;;;18.17;14.25;;;16.90;99.90;;;;;;5021316;28;20172;-86
2023/06/23 05:19:28;;;;;;;18.48;14.02;;;16.90;99.90;;;;;;5022470;28;20033;-85
2023/06/23 05:21:58;;;;;;;19.05;13.55;;;16.90;99.90;;;;;;5021455;28;20044;-87
2023/06/23 05:24:27;;;;;;;21.73;16.80;;;17.00;99.90;;;;;;5023151;28;20037;-87
2023/06/23 05:26:59;;;;;;;18.05;13.68;;;17.00;99.90;;;;;;5021266;28;20037;-86
2023/06/23 05:29:25;;;;;;;15.70;11.25;;;17.10;99.90;;;;;;5022188;28;20033;-86
2023/06/23 05:31:54;;;;;;;16.38;12.07;;;17.10;99.90;;;;;;5002954;28;20112;-87
2023/06/23 05:34:24;;;;;;;17.73;13.38;;;17.20;99.90;;;;;;5004785;28;20036;-86
2023/06/23 05:36:52;;;;;;;19.25;14.15;;;17.30;99.90;;;;;;5002868;28;20099;-86
2023/06/23 05:39:19;;;;;;;22.77;14.95;;;17.40;99.90;;;;;;5023200;28;20610;-86
2023/06/23 05:41:47;;;;;;;16.70;12.05;;;17.40;99.90;;;;;;5003074;28;20028;-86
2023/06/23 05:44:12;;;;;;;19.23;14.32;;;17.50;99.90;;;;;;5004495;28;20045;-85
2023/06/23 05:46:41;;;;;;;21.45;14.95;;;17.50;99.90;;;;;;5000673;28;20113;-86
2023/06/23 05:49:17;;;;;;;19.33;14.85;;;17.50;99.90;;;;;;5022336;28;20030;-86
2023/06/23 05:51:44;;;;;;;24.63;17.05;;;17.60;99.90;;;;;;4999557;28;22442;-86
2023/06/23 05:54:11;;;;;;;21.85;16.25;;;17.70;99.90;;;;;;4998692;28;20556;-85
2023/06/23 05:56:50;;;;;;;30.35;20.45;;;17.70;99.90;;;;;;5022793;28;20068;-86
2023/06/23 05:59:24;;;;;;;25.85;20.25;;;17.80;99.90;;;;;;5021640;28;20500;-86
2023/06/23 06:01:55;;;;;;;27.65;19.83;;;17.80;99.90;;;;;;5021341;28;20551;-85
2023/06/23 06:04:30;;;;;;;22.75;17.13;;;17.80;99.90;;;;;;4996621;28;20025;-85
2023/06/23 06:06:58;;;;;;;23.42;17.02;;;17.80;99.90;;;;;;5020841;28;20040;-85
2023/06/23 06:09:29;;;;;;;24.67;18.45;;;18.00;99.90;;;;;;5020802;28;20083;-86
2023/06/23 06:11:57;;;;;;;27.63;19.67;;;18.00;99.90;;;;;;5021433;28;20025;-85
2023/06/23 06:14:24;;;;;;;24.00;18.67;;;18.00;99.90;;;;;;5037488;28;20191;-85
2023/06/23 06:16:53;;;;;;;24.25;17.52;;;18.10;99.90;;;;;;5020440;28;20044;-85
2023/06/23 06:19:22;;;;;;;23.23;18.48;;;18.10;99.90;;;;;;5000704;28;20045;-85
2023/06/23 06:21:58;;;;;;;23.52;18.00;;;18.10;99.90;;;;;;4996423;28;20487;-85
2023/06/23 06:24:31;;;;;;;24.73;18.45;;;18.10;99.90;;;;;;5021106;28;20037;-84
2023/06/23 06:27:05;;;;;;;27.92;18.52;;;18.20;99.90;;;;;;5019177;28;20029;-85
2023/06/23 06:29:45;;;;;;;21.92;16.80;;;18.30;99.90;;;;;;4977441;28;20076;-85
2023/06/23 06:32:19;;;;;;;20.30;15.20;;;18.40;99.90;;;;;;4997474;28;20117;-85
2023/06/23 06:34:55;;;;;;;19.27;14.20;;;18.50;99.90;;;;;;4995989;28;20060;-84
2023/06/23 06:37:33;;;;;;;17.80;13.38;;;18.60;99.90;;;;;;4981835;28;20479;-84
2023/06/23 06:40:05;;;;;;;18.88;13.88;;;18.70;99.90;;;;;;4981902;28;20049;-84
2023/06/23 06:42:36;;;;;;;18.83;12.95;;;18.80;99.90;;;;;;4993804;28;20129;-84
2023/06/23 06:45:13;;;;;;;16.33;12.25;;;18.80;99.90;;;;;;4981431;28;20393;-84
2023/06/23 06:47:50;;;;;;;18.08;12.25;;;19.00;99.90;;;;;;4977491;28;20034;-84
2023/06/23 06:50:20;;;;;;;17.90;13.98;;;19.00;99.90;;;;;;4995334;28;20057;-84
2023/06/23 06:52:49;;;;;;;21.70;15.25;;;19.00;99.90;;;;;;5000036;28;20030;-84
2023/06/23 06:55:20;;;;;;;16.17;13.07;;;19.00;99.90;;;;;;4978108;28;20044;-85
2023/06/23 06:57:51;;;;;;;15.63;12.10;;;19.10;99.90;;;;;;4996551;28;20129;-83
2023/06/23 07:00:30;;;;;;;17.92;14.15;;;19.10;99.90;;;;;;4999373;28;20077;-85
2023/06/23 07:03:04;;;;;;;21.90;16.50;;;19.20;99.90;;;;;;4996712;28;20126;-83
2023/06/23 07:05:30;;;;;;;20.75;15.70;;;19.00;99.90;;;;;;4998234;28;20033;-84
2023/06/23 07:08:01;;;;;;;20.60;16.45;;;19.00;99.90;;;;;;4978039;28;20033;-85
2023/06/23 07:10:29;;;;;;;20.92;15.07;;;18.90;99.90;;;;;;5000067;28;20585;-84
2023/06/23 07:12:58;;;;;;;18.40;14.00;;;18.90;99.90;;;;;;4999085;28;20022;-84
2023/06/23 07:15:32;;;;;;;17.65;13.88;;;19.00;99.90;;;;;;4999219;28;20032;-84
2023/06/23 07:18:02;;;;;;;17.55;12.82;;;19.10;99.90;;;;;;4970135;28;20049;-84
2023/06/23 07:20:33;;;;;;;18.23;14.45;;;19.10;99.90;;;;;;4980971;28;20065;-84
2023/06/23 07:23:05;;;;;;;17.52;14.70;;;19.20;99.90;;;;;;4981725;28;20088;-84
2023/06/23 07:25:36;;;;;;;19.30;14.25;;;19.20;99.90;;;;;;4976893;28;20478;-84
2023/06/23 07:28:03;;;;;;;18.35;13.73;;;19.20;99.90;;;;;;5008090;28;20073;-84
2023/06/23 07:30:33;;;;;;;15.80;12.63;;;19.10;99.90;;;;;;5020168;28;20103;-84
2023/06/23 07:33:00;;;;;;;12.80;11.13;;;19.10;99.90;;;;;;5020477;28;20037;-84
2023/06/23 07:35:26;;;;;;;12.55;10.38;;;19.10;99.90;;;;;;5020400;28;20033;-84
2023/06/23 07:37:52;;;;;;;14.63;12.98;;;19.10;99.90;;;;;;5034605;28;20025;-84
2023/06/23 07:40:17;;;;;;;14.95;13.20;;;19.10;99.90;;;;;;4998911;28;20660;-84
2023/06/23 07:42:43;;;;;;;13.63;10.65;;;19.20;99.90;;;;;;5003862;28;20025;-84
2023/06/23 07:45:10;;;;;;;11.20;9.00;;;19.20;99.90;;;;;;5000111;28;20106;-84
2023/06/23 07:47:36;;;;;;;12.55;10.02;;;19.20;99.90;;;;;;5021108;28;20037;-83
2023/06/23 07:50:01;;;;;;;9.98;8.85;;;19.30;99.90;;;;;;4997798;28;20030;-84
2023/06/23 07:52:27;;;;;;;11.60;9.05;;;19.40;99.90;;;;;;5001590;28;20025;-84
2023/06/23 07:54:53;;;;;;;10.07;8.75;;;19.40;99.90;;;;;;5021551;28;20056;-83
2023/06/23 07:57:21;;;;;;;9.65;8.18;;;19.40;99.90;;;;;;5024224;28;20121;-83
2023/06/23 07:59:47;;;;;;;10.90;9.02;;;19.50;99.90;;;;;;5024431;28;20029;-83
2023/06/23 08:02:13;;;;;;;12.80;10.35;;;19.60;99.90;;;;;;5020492;28;20401;-83
2023/06/23 08:04:41;;;;;;;13.05;10.75;;;19.60;99.90;;;;;;5038788;28;20030;-83
2023/06/23 08:07:13;;;;;;;14.40;11.77;;;19.60;99.90;;;;;;5038510;28;20043;-84
2023/06/23 08:09:44;;;;;;;12.93;10.00;;;19.80;99.90;;;;;;5024000;28;20099;-82
2023/06/23 08:12:11;;;;;;;11.68;9.48;;;19.70;99.90;;;;;;5021360;28;20473;-83
2023/06/23 08:14:43;;;;;;;10.80;8.23;;;19.70;99.90;;;;;;5023535;28;20034;-83
2023/06/23 08:17:12;;;;;;;9.98;8.02;;;19.70;99.90;;;;;;5038304;28;20033;-83
2023/06/23 08:19:37;;;;;;;10.07;9.00;;;19.70;99.90;;;;;;5023833;28;20022;-82
2023/06/23 08:22:06;;;;;;;9.00;7.25;;;19.70;99.90;;;;;;5023130;28;20026;-81
2023/06/23 08:24:44;;;;;;;8.68;7.05;;;19.80;99.90;;;;;;5024176;28;20045;-81
2023/06/23 08:27:12;;;;;;;9.45;6.43;;;19.80;99.90;;;;;;5000003;28;20256;-82
2023/06/23 08:29:39;;;;;;;8.70;6.80;;;19.90;99.90;;;;;;5005321;28;20469;-82
2023/06/23 08:32:06;;;;;;;8.82;6.63;;;20.00;99.90;;;;;;5002424;28;20535;-82
2023/06/23 08:34:36;;;;;;;11.75;9.57;;;20.00;99.90;;;;;;5019113;28;20033;-82
2023/06/23 08:37:04;;;;;;;10.90;7.65;;;20.10;99.90;;;;;;5021988;28;20042;-82
2023/06/23 08:39:31;;;;;;;8.55;6.72;;;20.20;99.90;;;;;;5021536;28;20033;-81
2023/06/23 08:41:58;;;;;;;7.18;6.03;;;20.30;99.90;;;;;;5037939;28;20465;-81
2023/06/23 08:44:32;;;;;;;8.60;6.57;;;20.30;99.90;;;;;;5020679;28;20030;-82
2023/06/23 08:47:02;;;;;;;9.13;6.70;;;20.40;99.90;;;;;;5023022;28;20120;-81
2023/06/23 08:49:30;;;;;;;8.88;7.15;;;20.50;99.90;;;;;;5023283;28;20026;-82
2023/06/23 08:51:56;;;;;;;8.60;6.35;;;20.60;99.90;;;;;;5015862;28;20139;-81
2023/06/23 08:54:23;;;;;;;6.57;5.28;;;20.60;99.90;;;;;;5037193;28;20073;-82
2023/06/23 08:56:53;;;;;;;6.57;4.90;;;20.60;99.90;;;;;;5022389;28;20028;-81
2023/06/23 08:59:22;;;;;;;6.32;4.85;;;20.70;99.90;;;;;;5021716;28;20060;-81
2023/06/23 09:01:50;;;;;;;6.22;5.07;;;20.70;99.90;;;;;;5020972;28;20393;-81
2023/06/23 09:04:18;;;;;;;5.53;4.10;;;20.80;99.90;;;;;;5020834;28;20025;-82
2023/06/23 09:06:46;;;;;;;5.40;3.83;;;20.90;99.90;;;;;;5022161;28;20122;-81
2023/06/23 09:09:12;;;;;;;5.20;3.90;;;21.00;99.90;;;;;;4999743;28;20167;-81
2023/06/23 09:11:40;;;;;;;4.97;3.97;;;21.10;99.90;;;;;;5022725;28;20026;-81
2023/06/23 09:14:07;;;;;;;5.13;3.70;;;21.20;99.90;;;;;;5021947;28;20026;-81
2023/06/23 09:16:33;;;;;;;5.55;4.20;;;21.30;99.90;;;;;;5023290;28;20048;-81
2023/06/23 09:19:02;;;;;;;5.72;4.35;;;21.50;99.90;;;;;;4998657;28;20038;-81
2023/06/23 09:21:28;;;;;;;5.47;4.57;;;21.70;99.90;;;;;;5022748;28;20022;-80
2023/06/23 09:24:05;;;;;;;7.25;4.80;;;21.90;99.90;;;;;;5017184;28;20144;-80
2023/06/23 09:26:43;;;;;;;6.35;4.93;;;22.10;99.90;;;;;;5019127;28;20099;-81
2023/06/23 09:29:20;;;;;;;7.40;5.85;;;22.30;99.90;;;;;;5021776;28;20041;-81
2023/06/23 09:31:50;;;;;;;7.45;6.00;;;22.30;99.90;;;;;;5021786;28;20072;-80
2023/06/23 09:34:30;;;;;;;6.40;5.05;;;22.40;99.90;;;;;;5004087;28;20033;-82
2023/06/23 09:37:36;;;;;;;5.40;4.57;;;23.20;99.90;;;;;;5021576;28;20041;-81
2023/06/23 09:40:04;;;;;;;5.28;4.18;;;24.50;99.90;;;;;;4991707;28;20139;-80
2023/06/23 09:42:33;;;;;;;4.50;3.60;;;25.40;99.90;;;;;;4999923;28;20034;-81
2023/06/23 09:44:58;;;;;;;4.82;3.97;;;26.20;99.90;;;;;;4999801;28;20052;-81
2023/06/23 09:47:25;;;;;;;4.93;3.92;;;26.30;99.90;;;;;;4998248;28;20486;-81
2023/06/23 09:49:51;;;;;;;4.15;3.08;;;26.80;99.90;;;;;;5021033;28;20480;-80
2023/06/23 09:52:30;;;;;;;4.60;3.67;;;27.40;99.90;;;;;;5004389;28;20075;-81
2023/06/23 09:54:58;;;;;;;4.45;3.28;;;27.60;99.90;;;;;;5020728;28;20044;-81
2023/06/23 09:57:25;;;;;;;4.47;3.60;;;27.00;99.90;;;;;;5003261;28;20116;-81
2023/06/23 09:59:53;;;;;;;4.90;3.63;;;26.80;99.90;;;;;;5004087;28;20139;-81
2023/06/23 10:02:23;;;;;;;4.45;3.42;;;26.90;99.90;;;;;;4998361;28;20056;-79
2023/06/23 10:04:49;;;;;;;3.13;2.83;;;26.80;99.90;;;;;;5017402;28;20456;-81
2023/06/23 10:07:23;;;;;;;4.40;3.53;;;27.20;99.90;;;;;;5021780;28;20033;-80
2023/06/23 10:09:57;;;;;;;3.60;2.60;;;27.70;99.90;;;;;;5021301;28;20029;-81
2023/06/23 10:12:28;;;;;;;3.50;2.95;;;28.30;99.90;;;;;;5002889;28;20025;-81
2023/06/23 10:14:55;;;;;;;4.10;3.10;;;28.80;99.90;;;;;;4998725;28;20034;-81
2023/06/23 10:17:22;;;;;;;3.45;2.38;;;29.30;99.90;;;;;;5021320;28;20188;-81
2023/06/23 10:19:48;;;;;;;3.15;2.42;;;29.50;99.90;;;;;;5020848;28;20025;-80
2023/06/23 10:22:16;;;;;;;4.13;2.92;;;29.20;99.90;;;;;;4999472;28;20025;-80
2023/06/23 10:24:52;;;;;;;4.28;2.78;;;29.00;99.90;;;;;;5002983;28;20079;-81
2023/06/23 10:27:37;;;;;;;3.22;2.50;;;29.40;99.90;;;;;;5020530;28;20029;-80
2023/06/23 10:30:04;;;;;;;3.78;2.80;;;29.50;99.90;;;;;;5020771;28;20041;-81
2023/06/23 10:32:33;;;;;;;3.63;2.55;;;29.80;99.90;;;;;;4997741;28;20072;-81
2023/06/23 10:35:07;;;;;;;2.90;2.17;;;30.10;99.90;;;;;;4997878;28;20156;-80
2023/06/23 10:37:33;;;;;;;3.88;1.50;;;30.40;99.90;;;;;;4996647;28;20101;-81
2023/06/23 10:40:04;;;;;;;3.40;2.17;;;30.90;99.90;;;;;;5001102;28;20481;-81
2023/06/23 10:42:34;;;;;;;2.87;2.10;;;31.40;99.90;;;;;;5021133;28;21065;-81
2023/06/23 10:45:01;;;;;;;2.92;2.13;;;31.40;99.90;;;;;;4999133;28;20465;-80
2023/06/23 10:47:29;;;;;;;2.90;2.17;;;31.50;99.90;;;;;;5004014;28;20068;-80
2023/06/23 10:49:56;;;;;;;4.47;2.60;;;31.60;99.90;;;;;;5016498;28;20544;-80
2023/06/23 10:52:23;;;;;;;3.22;2.13;;;31.70;99.90;;;;;;5021281;28;20142;-81
2023/06/23 10:54:49;;;;;;;2.55;1.88;;;31.60;99.90;;;;;;5020453;28;20052;-80
2023/06/23 10:57:15;;;;;;;3.45;2.10;;;31.60;99.90;;;;;;5020140;28;20059;-80
2023/06/23 10:59:42;;;;;;;2.88;1.90;;;31.70;99.90;;;;;;4997364;28;20144;-80
2023/06/23 11:02:15;;;;;;;2.83;1.90;;;31.90;99.90;;;;;;5020699;28;20036;-81
2023/06/23 11:04:57;;;;;;;2.80;2.03;;;31.60;99.90;;;;;;5002618;28;20029;-80
2023/06/23 11:07:24;;;;;;;2.55;2.00;;;31.60;99.80;;;;;;5020189;28;20053;-80
2023/06/23 11:10:03;;;;;;;3.20;2.00;;;31.60;99.50;;;;;;4997786;28;20134;-80
2023/06/23 11:12:44;;;;;;;4.03;2.25;;;31.90;99.20;;;;;;5021026;28;20029;-80
2023/06/23 11:15:21;;;;;;;4.10;2.10;;;31.80;96.70;;;;;;5021256;28;20022;-80
2023/06/23 11:18:04;;;;;;;3.17;1.80;;;31.80;96.10;;;;;;4998112;28;20028;-79
2023/06/23 11:20:41;;;;;;;1.88;1.45;;;32.20;96.20;;;;;;5020768;28;20026;-80
2023/06/23 11:23:13;;;;;;;4.30;1.98;;;32.50;95.80;;;;;;5035004;28;20022;-80
2023/06/23 11:25:39;;;;;;;;;;;32.60;95.00;;;;;;5022267;28;20037;-79
2023/06/23 11:28:36;;;;;;;3.50;1.70;;;32.50;95.20;;;;;;5001124;28;20822;-80
2023/06/23 11:31:13;;;;;;;2.08;1.58;;;32.50;93.70;;;;;;5023965;28;20500;-80
2023/06/23 11:33:44;;;;;;;3.05;1.70;;;32.60;94.90;;;;;;5023710;28;20507;-80
2023/06/23 11:36:13;;;;;;;2.40;1.60;;;33.00;94.40;;;;;;5023141;28;20040;-80
2023/06/23 11:38:41;;;;;;;3.28;1.88;;;33.20;94.70;;;;;;5000406;28;20500;-80
2023/06/23 11:41:07;;;;;;;3.05;1.65;;;33.20;93.00;;;;;;4984998;28;20034;-80
2023/06/23 11:43:35;;;;;;;2.10;1.58;;;33.30;93.40;;;;;;5024267;28;20029;-80
2023/06/23 11:46:12;;;;;;;2.88;1.65;;;33.70;93.10;;;;;;5000843;28;20072;-79
2023/06/23 11:48:41;;;;;;;2.67;1.55;;;33.70;91.60;;;;;;5002410;28;20032;-80
2023/06/23 11:51:11;;;;;;;2.83;1.75;;;33.70;90.80;;;;;;5005325;28;20029;-80
2023/06/23 11:53:42;;;;;;;2.05;1.50;;;33.70;90.80;;;;;;5022212;28;21144;-80
2023/06/23 11:56:09;;;;;;;2.00;1.45;;;33.70;90.70;;;;;;5023356;28;20037;-80
2023/06/23 11:58:35;;;;;;;1.80;1.17;;;33.80;90.10;;;;;;5001019;28;20030;-80
2023/06/23 12:01:04;;;;;;;2.22;1.50;;;34.00;90.00;;;;;;4984073;28;20029;-80
2023/06/23 12:03:31;;;;;;;1.88;1.30;;;34.00;88.70;;;;;;4999432;28;20033;-80
2023/06/23 12:05:59;;;;;;;2.22;1.60;;;33.90;86.80;;;;;;5005135;28;20049;-79
2023/06/23 12:08:28;;;;;;;2.63;1.60;;;33.80;85.30;;;;;;5024778;28;20180;-80
2023/06/23 12:10:54;;;;;;;2.28;1.45;;;33.90;86.70;;;;;;5019574;28;20026;-79
2023/06/23 12:13:20;;;;;;;1.90;1.30;;;34.20;86.00;;;;;;5026406;28;20061;-80
2023/06/23 12:15:46;;;;;;;2.55;1.55;;;34.30;86.30;;;;;;5000170;28;20136;-79
2023/06/23 12:18:12;;;;;;;2.63;1.63;;;34.20;84.50;;;;;;5005918;28;20029;-79
2023/06/23 12:20:45;;;;;;;2.20;1.70;;;34.30;84.80;;;;;;5022853;28;20418;-80
2023/06/23 12:23:11;;;;;;;2.72;1.40;;;34.50;84.00;;;;;;5037531;28;20050;-80
2023/06/23 12:25:44;;;;;;;3.78;1.80;;;34.40;82.70;;;;;;5000918;28;20045;-79
2023/06/23 12:28:15;;;;;;;2.65;1.60;;;34.40;81.30;;;;;;5023298;28;20045;-80
2023/06/23 12:30:43;;;;;;;1.92;1.38;;;34.40;83.10;;;;;;5021028;28;20032;-80
2023/06/23 12:33:19;;;;;;;1.98;1.40;;;34.70;84.00;;;;;;5022901;28;20080;-80
2023/06/23 12:36:04;;;;;;;1.52;1.30;;;34.80;83.10;;;;;;5023034;28;20029;-80
2023/06/23 12:38:39;;;;;;;2.75;1.48;;;34.90;83.20;;;;;;5022147;28;20025;-80
2023/06/23 12:41:24;;;;;;;1.60;1.30;;;34.80;82.30;;;;;;5021559;28;20025;-80
2023/06/23 12:43:55;;;;;;;1.50;1.17;;;34.60;83.30;;;;;;5022624;28;20018;-79
2023/06/23 12:46:26;;;;;;;2.30;1.75;;;34.50;84.00;;;;;;5005472;28;20385;-79
2023/06/23 12:48:54;;;;;;;2.67;1.70;;;34.40;81.60;;;;;;5022580;28;20033;-80
2023/06/23 12:51:32;;;;;;;2.08;1.52;;;34.20;82.40;;;;;;5023249;28;20123;-80
2023/06/23 12:53:58;;;;;;;2.47;1.65;;;34.50;82.80;;;;;;5003155;28;20060;-80
2023/06/23 12:56:25;;;;;;;1.60;1.42;;;34.70;82.00;;;;;;5022988;28;20037;-80